sensor_id;sensor_type;location;lat;lon;timestamp;pressure;altitude;pressure_sealevel;temperature;humidity
50268;BME280;36153;50.960;6.220;2023-03-26T00:01:22;99810.31;;;12.24;57.57
50268;BME280;36153;50.960;6.220;2023-03-26T00:04:24;99804.31;;;12.14;57.55
50268;BME280;36153;50.960;6.220;2023-03-26T00:07:26;99809.47;;;12.23;57.13
50268;BME280;36153;50.960;6.220;2023-03-26T00:10:27;99799.94;;;12.15;57.61
50268;BME280;36153;50.960;6.220;2023-03-26T00:13:29;99807.72;;;12.24;57.30
50268;BME280;36153;50.960;6.220;2023-03-26T00:16:31;99805.13;;;12.21;57.09
50268;BME280;36153;50.960;6.220;2023-03-26T00:19:33;99806.84;;;12.26;56.81
50268;BME280;36153;50.960;6.220;2023-03-26T00:22:34;99807.75;;;12.18;56.88
50268;BME280;36153;50.960;6.220;2023-03-26T00:25:37;99803.44;;;12.12;57.17
50268;BME280;36153;50.960;6.220;2023-03-26T00:28:42;99805.19;;;12.11;56.96
50268;BME280;36153;50.960;6.220;2023-03-26T00:31:43;99799.94;;;12.13;56.53
50268;BME280;36153;50.960;6.220;2023-03-26T00:34:45;99794.78;;;12.08;56.72
50268;BME280;36153;50.960;6.220;2023-03-26T00:37:46;99796.47;;;12.14;56.28
50268;BME280;36153;50.960;6.220;2023-03-26T00:40:47;99787.75;;;12.17;55.92
50268;BME280;36153;50.960;6.220;2023-03-26T00:43:52;99785.13;;;12.21;55.67
50268;BME280;36153;50.960;6.220;2023-03-26T00:46:55;99785.28;;;12.00;56.30
50268;BME280;36153;50.960;6.220;2023-03-26T00:49:55;99777.41;;;12.04;56.17
50268;BME280;36153;50.960;6.220;2023-03-26T00:52:56;99780.91;;;11.91;56.30
50268;BME280;36153;50.960;6.220;2023-03-26T00:55:57;99781.81;;;11.96;56.25
50268;BME280;36153;50.960;6.220;2023-03-26T00:58:59;99776.56;;;11.90;56.44
50268;BME280;36153;50.960;6.220;2023-03-26T01:02:00;99770.47;;;11.92;55.79
50268;BME280;36153;50.960;6.220;2023-03-26T01:08:43;99768.78;;;11.84;56.66
50268;BME280;36153;50.960;6.220;2023-03-26T01:11:44;99759.13;;;12.06;56.20
50268;BME280;36153;50.960;6.220;2023-03-26T01:14:49;99759.09;;;12.10;55.94
50268;BME280;36153;50.960;6.220;2023-03-26T01:17:51;99748.72;;;12.03;55.83
50268;BME280;36153;50.960;6.220;2023-03-26T01:20:56;99743.50;;;12.03;55.60
50268;BME280;36153;50.960;6.220;2023-03-26T01:30:38;99732.09;;;12.16;55.21
50268;BME280;36153;50.960;6.220;2023-03-26T01:33:48;99735.53;;;12.23;55.37
50268;BME280;36153;50.960;6.220;2023-03-26T01:37:20;99730.28;;;12.26;55.20
50268;BME280;36153;50.960;6.220;2023-03-26T01:40:34;99717.16;;;12.35;55.21
50268;BME280;36153;50.960;6.220;2023-03-26T01:46:48;99717.84;;;12.56;54.30
50268;BME280;36153;50.960;6.220;2023-03-26T01:49:50;99712.56;;;12.63;54.38
50268;BME280;36153;50.960;6.220;2023-03-26T01:52:50;99708.22;;;12.59;54.25
50268;BME280;36153;50.960;6.220;2023-03-26T01:59:35;99703.56;;;12.91;53.79
50268;BME280;36153;50.960;6.220;2023-03-26T02:06:22;99682.75;;;12.85;54.28
50268;BME280;36153;50.960;6.220;2023-03-26T02:09:29;99682.00;;;12.75;54.67
50268;BME280;36153;50.960;6.220;2023-03-26T02:12:31;99666.25;;;12.81;54.22
50268;BME280;36153;50.960;6.220;2023-03-26T02:15:32;99660.22;;;12.74;54.74
50268;BME280;36153;50.960;6.220;2023-03-26T02:18:32;99659.31;;;12.78;54.64
50268;BME280;36153;50.960;6.220;2023-03-26T02:21:38;99657.50;;;12.85;54.57
50268;BME280;36153;50.960;6.220;2023-03-26T02:24:38;99654.94;;;12.80;54.69
50268;BME280;36153;50.960;6.220;2023-03-26T02:27:39;99648.81;;;12.81;54.59
50268;BME280;36153;50.960;6.220;2023-03-26T02:30:39;99642.75;;;12.81;54.62
50268;BME280;36153;50.960;6.220;2023-03-26T02:33:39;99634.16;;;12.71;54.70
50268;BME280;36153;50.960;6.220;2023-03-26T02:36:40;99622.91;;;12.64;54.90
50268;BME280;36153;50.960;6.220;2023-03-26T02:39:42;99625.44;;;12.72;54.59
50268;BME280;36153;50.960;6.220;2023-03-26T02:42:42;99620.94;;;12.84;54.52
50268;BME280;36153;50.960;6.220;2023-03-26T02:45:43;99617.34;;;12.94;54.21
50268;BME280;36153;50.960;6.220;2023-03-26T02:48:43;99619.88;;;13.00;54.06
50268;BME280;36153;50.960;6.220;2023-03-26T02:51:44;99611.19;;;12.98;54.36
50268;BME280;36153;50.960;6.220;2023-03-26T02:54:44;99603.47;;;12.87;54.73
50268;BME280;36153;50.960;6.220;2023-03-26T02:57:44;99602.59;;;12.90;54.88
50268;BME280;36153;50.960;6.220;2023-03-26T03:00:45;99600.88;;;12.89;54.70
50268;BME280;36153;50.960;6.220;2023-03-26T03:03:46;99593.09;;;12.83;54.89
50268;BME280;36153;50.960;6.220;2023-03-26T03:06:46;99586.91;;;12.90;54.72
50268;BME280;36153;50.960;6.220;2023-03-26T03:09:51;99580.72;;;12.97;54.65
50268;BME280;36153;50.960;6.220;2023-03-26T03:12:52;99584.25;;;12.94;54.54
50268;BME280;36153;50.960;6.220;2023-03-26T03:15:53;99579.88;;;12.95;54.35
50268;BME280;36153;50.960;6.220;2023-03-26T03:18:54;99565.94;;;12.96;54.30
50268;BME280;36153;50.960;6.220;2023-03-26T03:21:55;99565.91;;;12.99;54.46
50268;BME280;36153;50.960;6.220;2023-03-26T03:24:55;99566.84;;;12.93;55.15
50268;BME280;36153;50.960;6.220;2023-03-26T03:27:58;99557.31;;;12.91;55.29
50268;BME280;36153;50.960;6.220;2023-03-26T03:30:59;99555.56;;;12.90;55.18
50268;BME280;36153;50.960;6.220;2023-03-26T03:33:59;99546.81;;;12.92;55.16
50268;BME280;36153;50.960;6.220;2023-03-26T03:36:59;99542.59;;;12.84;55.78
50268;BME280;36153;50.960;6.220;2023-03-26T03:40:00;99534.78;;;12.82;55.88
50268;BME280;36153;50.960;6.220;2023-03-26T03:43:00;99534.72;;;12.87;55.76
50268;BME280;36153;50.960;6.220;2023-03-26T03:46:01;99532.97;;;12.86;55.95
50268;BME280;36153;50.960;6.220;2023-03-26T03:49:02;99521.69;;;12.85;55.80
50268;BME280;36153;50.960;6.220;2023-03-26T03:52:02;99519.22;;;12.74;56.24
50268;BME280;36153;50.960;6.220;2023-03-26T03:55:03;99508.84;;;12.68;56.82
50268;BME280;36153;50.960;6.220;2023-03-26T03:58:04;99502.94;;;12.52;57.59
50268;BME280;36153;50.960;6.220;2023-03-26T04:01:05;99497.84;;;12.41;58.66
50268;BME280;36153;50.960;6.220;2023-03-26T04:04:05;99485.94;;;12.20;59.08
50268;BME280;36153;50.960;6.220;2023-03-26T04:07:06;99483.44;;;12.12;59.35
50268;BME280;36153;50.960;6.220;2023-03-26T04:10:08;99469.53;;;12.09;59.51
50268;BME280;36153;50.960;6.220;2023-03-26T04:13:10;99474.81;;;12.04;59.81
50268;BME280;36153;50.960;6.220;2023-03-26T04:16:11;99466.09;;;12.08;59.71
50268;BME280;36153;50.960;6.220;2023-03-26T04:19:11;99453.97;;;12.04;59.54
50268;BME280;36153;50.960;6.220;2023-03-26T04:22:13;99453.88;;;12.10;59.37
50268;BME280;36153;50.960;6.220;2023-03-26T04:25:14;99451.25;;;12.12;59.33
50268;BME280;36153;50.960;6.220;2023-03-26T04:28:30;99447.53;;;12.30;59.27
50268;BME280;36153;50.960;6.220;2023-03-26T04:31:31;99441.44;;;12.33;59.18
50268;BME280;36153;50.960;6.220;2023-03-26T04:34:33;99446.75;;;12.25;59.60
50268;BME280;36153;50.960;6.220;2023-03-26T04:37:35;99438.00;;;12.29;59.61
50268;BME280;36153;50.960;6.220;2023-03-26T04:40:38;99431.91;;;12.28;59.24
50268;BME280;36153;50.960;6.220;2023-03-26T04:43:41;99430.13;;;12.34;59.00
50268;BME280;36153;50.960;6.220;2023-03-26T04:46:46;99424.72;;;12.48;58.60
50268;BME280;36153;50.960;6.220;2023-03-26T04:49:46;99420.44;;;12.42;58.58
50268;BME280;36153;50.960;6.220;2023-03-26T04:52:47;99408.97;;;12.52;58.33
50268;BME280;36153;50.960;6.220;2023-03-26T04:56:01;99401.00;;;12.63;58.14
50268;BME280;36153;50.960;6.220;2023-03-26T04:59:02;99391.78;;;12.39;59.21
50268;BME280;36153;50.960;6.220;2023-03-26T05:02:04;99380.41;;;12.41;59.49
50268;BME280;36153;50.960;6.220;2023-03-26T05:05:05;99375.09;;;12.49;59.23
50268;BME280;36153;50.960;6.220;2023-03-26T05:08:06;99364.63;;;12.51;59.44
50268;BME280;36153;50.960;6.220;2023-03-26T05:11:09;99361.22;;;12.45;59.62
50268;BME280;36153;50.960;6.220;2023-03-26T05:14:10;99359.56;;;12.40;59.43
50268;BME280;36153;50.960;6.220;2023-03-26T05:17:13;99364.81;;;12.38;59.32
50268;BME280;36153;50.960;6.220;2023-03-26T05:20:19;99356.88;;;12.46;59.78
50268;BME280;36153;50.960;6.220;2023-03-26T05:23:21;99359.47;;;12.48;59.71
50268;BME280;36153;50.960;6.220;2023-03-26T05:26:21;99349.00;;;12.49;59.76
50268;BME280;36153;50.960;6.220;2023-03-26T05:29:21;99342.94;;;12.47;60.22
50268;BME280;36153;50.960;6.220;2023-03-26T05:32:23;99337.00;;;12.36;60.40
50268;BME280;36153;50.960;6.220;2023-03-26T05:35:23;99337.03;;;12.34;60.77
50268;BME280;36153;50.960;6.220;2023-03-26T05:38:23;99325.75;;;12.34;61.16
50268;BME280;36153;50.960;6.220;2023-03-26T05:41:24;99324.78;;;12.39;61.57
50268;BME280;36153;50.960;6.220;2023-03-26T05:44:25;99329.91;;;12.45;61.14
50268;BME280;36153;50.960;6.220;2023-03-26T05:47:25;99322.13;;;12.42;60.92
50268;BME280;36153;50.960;6.220;2023-03-26T05:50:26;99313.34;;;12.46;60.65
50268;BME280;36153;50.960;6.220;2023-03-26T05:53:26;99303.88;;;12.41;60.98
50268;BME280;36153;50.960;6.220;2023-03-26T05:56:27;99295.28;;;12.34;61.38
50268;BME280;36153;50.960;6.220;2023-03-26T05:59:27;99304.03;;;12.30;61.73
50268;BME280;36153;50.960;6.220;2023-03-26T06:02:28;99302.41;;;12.23;62.40
50268;BME280;36153;50.960;6.220;2023-03-26T06:05:31;99301.47;;;12.27;62.44
50268;BME280;36153;50.960;6.220;2023-03-26T06:08:33;99290.22;;;12.25;62.56
50268;BME280;36153;50.960;6.220;2023-03-26T06:11:33;99283.28;;;12.22;62.82
50268;BME280;36153;50.960;6.220;2023-03-26T06:14:34;99282.44;;;12.20;62.80
50268;BME280;36153;50.960;6.220;2023-03-26T06:17:35;99280.69;;;12.22;62.92
50268;BME280;36153;50.960;6.220;2023-03-26T06:20:35;99285.03;;;12.20;62.98
50268;BME280;36153;50.960;6.220;2023-03-26T06:23:36;99291.16;;;12.18;63.18
50268;BME280;36153;50.960;6.220;2023-03-26T06:26:36;99275.53;;;12.16;63.40
50268;BME280;36153;50.960;6.220;2023-03-26T06:29:37;99268.56;;;12.18;63.35
50268;BME280;36153;50.960;6.220;2023-03-26T06:32:37;99271.44;;;12.01;64.01
50268;BME280;36153;50.960;6.220;2023-03-26T06:35:38;99265.94;;;12.20;63.62
50268;BME280;36153;50.960;6.220;2023-03-26T06:38:38;99264.94;;;12.27;63.23
50268;BME280;36153;50.960;6.220;2023-03-26T06:41:38;99259.66;;;12.32;63.19
50268;BME280;36153;50.960;6.220;2023-03-26T06:44:39;99261.38;;;12.33;62.87
50268;BME280;36153;50.960;6.220;2023-03-26T06:47:39;99256.19;;;12.31;63.13
50268;BME280;36153;50.960;6.220;2023-03-26T06:50:40;99256.38;;;12.19;63.53
50268;BME280;36153;50.960;6.220;2023-03-26T06:53:40;99257.03;;;12.33;63.64
50268;BME280;36153;50.960;6.220;2023-03-26T06:56:40;99254.38;;;12.36;63.38
50268;BME280;36153;50.960;6.220;2023-03-26T06:59:41;99241.47;;;12.27;63.89
50268;BME280;36153;50.960;6.220;2023-03-26T07:02:41;99245.81;;;12.28;64.02
50268;BME280;36153;50.960;6.220;2023-03-26T07:05:41;99247.59;;;12.24;64.34
50268;BME280;36153;50.960;6.220;2023-03-26T07:08:42;99246.50;;;12.39;64.27
50268;BME280;36153;50.960;6.220;2023-03-26T07:11:42;99243.88;;;12.39;64.02
50268;BME280;36153;50.960;6.220;2023-03-26T07:14:42;99236.91;;;12.40;63.89
50268;BME280;36153;50.960;6.220;2023-03-26T07:17:43;99231.63;;;12.44;63.85
50268;BME280;36153;50.960;6.220;2023-03-26T07:20:44;99227.16;;;12.53;63.92
50268;BME280;36153;50.960;6.220;2023-03-26T07:23:45;99227.09;;;12.56;63.57
50268;BME280;36153;50.960;6.220;2023-03-26T07:30:14;99217.34;;;12.66;63.45
50268;BME280;36153;50.960;6.220;2023-03-26T07:36:32;99207.94;;;12.55;63.00
50268;BME280;36153;50.960;6.220;2023-03-26T07:39:47;99213.94;;;12.60;63.52
50268;BME280;36153;50.960;6.220;2023-03-26T07:42:59;99209.47;;;12.67;63.32
50268;BME280;36153;50.960;6.220;2023-03-26T07:46:02;99209.59;;;12.61;63.44
50268;BME280;36153;50.960;6.220;2023-03-26T07:49:03;99203.41;;;12.67;63.21
50268;BME280;36153;50.960;6.220;2023-03-26T07:52:04;99201.56;;;12.72;63.39
50268;BME280;36153;50.960;6.220;2023-03-26T07:55:05;99196.53;;;12.59;63.24
50268;BME280;36153;50.960;6.220;2023-03-26T07:58:21;99192.09;;;12.66;63.54
50268;BME280;36153;50.960;6.220;2023-03-26T08:14:43;99182.03;;;12.44;63.83
50268;BME280;36153;50.960;6.220;2023-03-26T08:17:53;99174.97;;;12.51;64.11
50268;BME280;36153;50.960;6.220;2023-03-26T08:21:02;99176.91;;;12.38;64.20
50268;BME280;36153;50.960;6.220;2023-03-26T08:30:33;99161.94;;;12.48;63.34
50268;BME280;36153;50.960;6.220;2023-03-26T08:33:34;99154.00;;;12.56;63.09
50268;BME280;36153;50.960;6.220;2023-03-26T08:36:35;99148.09;;;12.46;62.79
50268;BME280;36153;50.960;6.220;2023-03-26T08:39:36;99156.72;;;12.48;62.60
50268;BME280;36153;50.960;6.220;2023-03-26T08:56:10;99118.78;;;12.30;62.85
50268;BME280;36153;50.960;6.220;2023-03-26T08:59:33;99121.28;;;12.36;62.51
50268;BME280;36153;50.960;6.220;2023-03-26T09:06:09;99104.03;;;12.29;62.81
50268;BME280;36153;50.960;6.220;2023-03-26T09:19:28;99094.56;;;12.69;62.34
50268;BME280;36153;50.960;6.220;2023-03-26T09:39:15;99068.81;;;13.33;60.57
50268;BME280;36153;50.960;6.220;2023-03-26T09:42:32;99068.81;;;13.36;61.05
50268;BME280;36153;50.960;6.220;2023-03-26T09:52:00;99062.53;;;13.43;60.35
50268;BME280;36153;50.960;6.220;2023-03-26T09:55:18;99056.38;;;13.46;59.98
50268;BME280;36153;50.960;6.220;2023-03-26T09:59:07;99052.00;;;13.46;60.29
50268;BME280;36153;50.960;6.220;2023-03-26T10:02:39;99052.53;;;13.61;60.28
50268;BME280;36153;50.960;6.220;2023-03-26T10:08:56;99049.69;;;13.70;59.82
50268;BME280;36153;50.960;6.220;2023-03-26T10:12:27;99044.19;;;13.81;60.04
50268;BME280;36153;50.960;6.220;2023-03-26T10:22:08;99042.03;;;13.62;60.24
50268;BME280;36153;50.960;6.220;2023-03-26T10:28:55;99035.34;;;13.51;60.19
50268;BME280;36153;50.960;6.220;2023-03-26T10:39:24;99034.59;;;13.81;59.11
50268;BME280;36153;50.960;6.220;2023-03-26T10:46:03;99039.69;;;13.88;58.76
50268;BME280;36153;50.960;6.220;2023-03-26T10:55:39;99036.31;;;13.46;59.22
50268;BME280;36153;50.960;6.220;2023-03-26T10:58:40;99028.66;;;13.39;59.45
50268;BME280;36153;50.960;6.220;2023-03-26T11:05:18;99037.41;;;13.72;59.99
50268;BME280;36153;50.960;6.220;2023-03-26T11:08:29;99036.44;;;13.76;59.37
50268;BME280;36153;50.960;6.220;2023-03-26T11:11:37;99048.41;;;13.87;59.46
50268;BME280;36153;50.960;6.220;2023-03-26T11:25:08;99051.25;;;14.76;58.95
50268;BME280;36153;50.960;6.220;2023-03-26T11:31:43;99048.59;;;15.64;54.12
50268;BME280;36153;50.960;6.220;2023-03-26T11:34:57;99048.81;;;15.57;54.56
50268;BME280;36153;50.960;6.220;2023-03-26T11:38:04;99061.19;;;15.81;55.43
50268;BME280;36153;50.960;6.220;2023-03-26T11:41:19;99049.34;;;15.95;51.79
50268;BME280;36153;50.960;6.220;2023-03-26T11:44:36;99056.31;;;15.96;51.15
50268;BME280;36153;50.960;6.220;2023-03-26T11:47:51;99059.91;;;15.93;51.02
50268;BME280;36153;50.960;6.220;2023-03-26T11:51:01;99057.31;;;15.65;50.83
50268;BME280;36153;50.960;6.220;2023-03-26T11:54:05;99055.78;;;16.11;51.04
50268;BME280;36153;50.960;6.220;2023-03-26T11:57:10;99065.50;;;16.09;48.33
50268;BME280;36153;50.960;6.220;2023-03-26T12:00:20;99058.03;;;16.47;49.04
50268;BME280;36153;50.960;6.220;2023-03-26T12:03:23;99066.03;;;16.93;49.34
50268;BME280;36153;50.960;6.220;2023-03-26T12:06:25;99061.91;;;17.10;46.77
50268;BME280;36153;50.960;6.220;2023-03-26T12:09:28;99062.47;;;17.18;48.90
50268;BME280;36153;50.960;6.220;2023-03-26T12:12:31;99062.66;;;17.13;49.23
50268;BME280;36153;50.960;6.220;2023-03-26T12:15:32;99064.47;;;16.87;48.95
50268;BME280;36153;50.960;6.220;2023-03-26T12:18:33;99068.88;;;17.11;48.82
50268;BME280;36153;50.960;6.220;2023-03-26T12:21:47;99069.06;;;16.81;48.87
50268;BME280;36153;50.960;6.220;2023-03-26T12:25:00;99069.59;;;17.14;48.32
50268;BME280;36153;50.960;6.220;2023-03-26T12:31:13;99068.44;;;17.88;46.19
50268;BME280;36153;50.960;6.220;2023-03-26T12:34:19;99076.22;;;17.91;48.20
50268;BME280;36153;50.960;6.220;2023-03-26T12:37:37;99077.78;;;17.74;48.15
50268;BME280;36153;50.960;6.220;2023-03-26T12:40:40;99076.84;;;18.18;47.85
50268;BME280;36153;50.960;6.220;2023-03-26T12:43:47;99085.53;;;18.00;49.31
50268;BME280;36153;50.960;6.220;2023-03-26T12:46:49;99087.31;;;18.20;50.44
50268;BME280;36153;50.960;6.220;2023-03-26T12:49:53;99085.84;;;17.92;49.03
50268;BME280;36153;50.960;6.220;2023-03-26T12:53:32;99090.19;;;17.71;49.83
50268;BME280;36153;50.960;6.220;2023-03-26T13:03:10;99101.16;;;17.14;51.04
50268;BME280;36153;50.960;6.220;2023-03-26T13:06:31;99105.16;;;16.76;51.24
50268;BME280;36153;50.960;6.220;2023-03-26T13:16:00;99113.50;;;16.38;52.15
50268;BME280;36153;50.960;6.220;2023-03-26T13:25:38;99111.38;;;16.49;51.00
50268;BME280;36153;50.960;6.220;2023-03-26T13:28:52;99108.78;;;16.73;51.50
50268;BME280;36153;50.960;6.220;2023-03-26T13:32:02;99106.03;;;16.76;51.05
50268;BME280;36153;50.960;6.220;2023-03-26T13:55:40;99134.06;;;14.82;55.57
50268;BME280;36153;50.960;6.220;2023-03-26T14:01:53;99135.91;;;14.78;54.98
50268;BME280;36153;50.960;6.220;2023-03-26T14:05:19;99133.28;;;14.78;55.47
50268;BME280;36153;50.960;6.220;2023-03-26T14:08:25;99138.06;;;14.95;55.44
50268;BME280;36153;50.960;6.220;2023-03-26T14:15:00;99147.63;;;14.96;55.33
50268;BME280;36153;50.960;6.220;2023-03-26T14:21:56;99149.66;;;14.87;56.11
50268;BME280;36153;50.960;6.220;2023-03-26T14:25:15;99156.03;;;14.76;56.40
50268;BME280;36153;50.960;6.220;2023-03-26T14:28:23;99169.16;;;14.40;56.50
50268;BME280;36153;50.960;6.220;2023-03-26T14:31:34;99161.88;;;14.51;56.98
50268;BME280;36153;50.960;6.220;2023-03-26T14:34:41;99173.81;;;14.29;56.18
50268;BME280;36153;50.960;6.220;2023-03-26T14:45:22;99188.22;;;14.81;56.11
50268;BME280;36153;50.960;6.220;2023-03-26T14:55:03;99200.91;;;14.97;53.66
50268;BME280;36153;50.960;6.220;2023-03-26T14:58:31;99199.94;;;15.31;53.76
50268;BME280;36153;50.960;6.220;2023-03-26T15:05:36;99207.78;;;15.31;53.41
50268;BME280;36153;50.960;6.220;2023-03-26T15:12:36;99212.81;;;15.09;52.65
50268;BME280;36153;50.960;6.220;2023-03-26T15:16:03;99219.22;;;14.64;53.49
50268;BME280;36153;50.960;6.220;2023-03-26T15:23:09;99235.75;;;14.30;55.08
50268;BME280;36153;50.960;6.220;2023-03-26T15:29:38;99244.09;;;14.10;53.81
50268;BME280;36153;50.960;6.220;2023-03-26T15:43:11;99261.81;;;13.56;55.88
50268;BME280;36153;50.960;6.220;2023-03-26T15:46:25;99275.38;;;13.75;56.66
50268;BME280;36153;50.960;6.220;2023-03-26T15:49:54;99282.81;;;13.52;56.50
50268;BME280;36153;50.960;6.220;2023-03-26T21:18:13;100001.75;;;9.34;50.28
50268;BME280;36153;50.960;6.220;2023-03-26T21:31:47;100032.00;;;9.29;49.73
50268;BME280;36153;50.960;6.220;2023-03-26T21:34:49;100042.66;;;9.60;48.83
50268;BME280;36153;50.960;6.220;2023-03-26T21:37:50;100049.38;;;9.35;48.57
50268;BME280;36153;50.960;6.220;2023-03-26T21:40:53;100061.41;;;9.25;48.16
50268;BME280;36153;50.960;6.220;2023-03-26T21:43:55;100070.09;;;9.27;46.84
50268;BME280;36153;50.960;6.220;2023-03-26T21:46:55;100069.19;;;9.23;47.98
50268;BME280;36153;50.960;6.220;2023-03-26T21:49:56;100071.63;;;9.07;47.50
50268;BME280;36153;50.960;6.220;2023-03-26T21:52:57;100081.31;;;9.25;48.09
50268;BME280;36153;50.960;6.220;2023-03-26T21:56:17;100093.03;;;8.87;46.63
50268;BME280;36153;50.960;6.220;2023-03-26T21:59:35;100103.66;;;9.09;47.79
50268;BME280;36153;50.960;6.220;2023-03-26T22:08:57;100116.53;;;8.99;47.66
50268;BME280;36153;50.960;6.220;2023-03-26T22:11:59;100132.31;;;9.18;47.86
50268;BME280;36153;50.960;6.220;2023-03-26T22:15:05;100135.84;;;9.23;47.47
50268;BME280;36153;50.960;6.220;2023-03-26T22:18:07;100149.53;;;9.10;48.07
50268;BME280;36153;50.960;6.220;2023-03-26T22:21:09;100159.53;;;8.79;48.07
50268;BME280;36153;50.960;6.220;2023-03-26T22:24:11;100166.66;;;8.92;47.82
50268;BME280;36153;50.960;6.220;2023-03-26T22:27:12;100168.06;;;8.68;48.45
50268;BME280;36153;50.960;6.220;2023-03-26T22:30:16;100177.50;;;8.62;49.19
50268;BME280;36153;50.960;6.220;2023-03-26T22:33:18;100183.75;;;8.78;48.90
50268;BME280;36153;50.960;6.220;2023-03-26T22:36:20;100185.31;;;8.66;48.31
50268;BME280;36153;50.960;6.220;2023-03-26T22:39:23;100205.09;;;8.57;49.65
50268;BME280;36153;50.960;6.220;2023-03-26T22:42:26;100209.34;;;8.53;49.50
50268;BME280;36153;50.960;6.220;2023-03-26T22:45:28;100212.63;;;8.44;49.52
50268;BME280;36153;50.960;6.220;2023-03-26T22:48:31;100211.28;;;8.68;49.25
50268;BME280;36153;50.960;6.220;2023-03-26T22:51:33;100216.38;;;8.60;49.51
50268;BME280;36153;50.960;6.220;2023-03-26T22:54:36;100213.75;;;8.59;49.62
50268;BME280;36153;50.960;6.220;2023-03-26T22:57:39;100229.28;;;8.57;49.75
50268;BME280;36153;50.960;6.220;2023-03-26T23:00:42;100228.28;;;8.49;50.00
50268;BME280;36153;50.960;6.220;2023-03-26T23:03:47;100246.44;;;8.47;50.34
50268;BME280;36153;50.960;6.220;2023-03-26T23:06:53;100261.59;;;8.24;50.97
50268;BME280;36153;50.960;6.220;2023-03-26T23:09:56;100256.22;;;8.13;51.67
50268;BME280;36153;50.960;6.220;2023-03-26T23:12:59;100271.53;;;7.99;51.81
50268;BME280;36153;50.960;6.220;2023-03-26T23:16:02;100281.84;;;7.96;51.81
50268;BME280;36153;50.960;6.220;2023-03-26T23:19:06;100286.03;;;7.88;52.15
50268;BME280;36153;50.960;6.220;2023-03-26T23:22:10;100294.91;;;8.02;52.22
50268;BME280;36153;50.960;6.220;2023-03-26T23:25:14;100297.41;;;7.96;52.76
50268;BME280;36153;50.960;6.220;2023-03-26T23:28:16;100306.75;;;7.88;52.66
50268;BME280;36153;50.960;6.220;2023-03-26T23:31:20;100306.63;;;7.82;52.73
50268;BME280;36153;50.960;6.220;2023-03-26T23:34:22;100315.41;;;7.90;52.80
50268;BME280;36153;50.960;6.220;2023-03-26T23:37:25;100318.59;;;7.75;52.69
50268;BME280;36153;50.960;6.220;2023-03-26T23:40:29;100335.59;;;7.62;53.06
50268;BME280;36153;50.960;6.220;2023-03-26T23:43:31;100340.72;;;7.59;52.83
50268;BME280;36153;50.960;6.220;2023-03-26T23:46:36;100340.44;;;7.47;53.32
50268;BME280;36153;50.960;6.220;2023-03-26T23:49:48;100355.69;;;7.33;53.58
50268;BME280;36153;50.960;6.220;2023-03-26T23:52:55;100365.31;;;7.39;53.47
50268;BME280;36153;50.960;6.220;2023-03-26T23:55:59;100367.94;;;7.42;53.41
50268;BME280;36153;50.960;6.220;2023-03-26T23:59:08;100368.38;;;7.22;53.72
